sensor_id;sensor_type;location;lat;lon;timestamp;temperature;humidity
70076;DHT22;63241;51.056;3.698;2023-04-10T00:01:10;13.00;93.50
70076;DHT22;63241;51.056;3.698;2023-04-10T00:03:38;12.90;93.80
70076;DHT22;63241;51.056;3.698;2023-04-10T00:06:07;12.90;94.00
70076;DHT22;63241;51.056;3.698;2023-04-10T00:08:34;12.90;93.70
70076;DHT22;63241;51.056;3.698;2023-04-10T00:11:02;12.70;93.80
70076;DHT22;63241;51.056;3.698;2023-04-10T00:13:31;12.70;94.50
70076;DHT22;63241;51.056;3.698;2023-04-10T00:15:59;12.60;94.30
70076;DHT22;63241;51.056;3.698;2023-04-10T00:18:26;12.60;94.30
70076;DHT22;63241;51.056;3.698;2023-04-10T00:20:54;12.60;94.20
70076;DHT22;63241;51.056;3.698;2023-04-10T00:23:22;12.60;93.70
70076;DHT22;63241;51.056;3.698;2023-04-10T00:25:50;12.60;93.60
70076;DHT22;63241;51.056;3.698;2023-04-10T00:28:17;12.50;93.80
70076;DHT22;63241;51.056;3.698;2023-04-10T00:30:45;12.50;93.50
70076;DHT22;63241;51.056;3.698;2023-04-10T00:33:13;12.60;93.20
70076;DHT22;63241;51.056;3.698;2023-04-10T00:35:40;12.60;92.80
70076;DHT22;63241;51.056;3.698;2023-04-10T00:38:08;12.60;92.20
70076;DHT22;63241;51.056;3.698;2023-04-10T00:40:36;12.50;92.40
70076;DHT22;63241;51.056;3.698;2023-04-10T00:43:03;12.60;92.40
70076;DHT22;63241;51.056;3.698;2023-04-10T00:45:31;12.60;92.20
70076;DHT22;63241;51.056;3.698;2023-04-10T00:47:59;12.50;92.20
70076;DHT22;63241;51.056;3.698;2023-04-10T00:50:26;12.50;92.30
70076;DHT22;63241;51.056;3.698;2023-04-10T00:52:54;12.50;92.60
70076;DHT22;63241;51.056;3.698;2023-04-10T00:55:22;12.60;92.30
70076;DHT22;63241;51.056;3.698;2023-04-10T00:57:51;12.50;92.40
70076;DHT22;63241;51.056;3.698;2023-04-10T01:00:19;12.40;92.30
70076;DHT22;63241;51.056;3.698;2023-04-10T01:02:46;12.30;92.60
70076;DHT22;63241;51.056;3.698;2023-04-10T01:05:15;12.30;92.40
70076;DHT22;63241;51.056;3.698;2023-04-10T01:07:57;12.20;93.10
70076;DHT22;63241;51.056;3.698;2023-04-10T01:10:33;12.20;93.20
70076;DHT22;63241;51.056;3.698;2023-04-10T01:13:05;12.20;93.00
70076;DHT22;63241;51.056;3.698;2023-04-10T01:15:29;12.20;92.90
70076;DHT22;63241;51.056;3.698;2023-04-10T01:18:01;12.20;92.60
70076;DHT22;63241;51.056;3.698;2023-04-10T01:20:31;12.10;93.40
70076;DHT22;63241;51.056;3.698;2023-04-10T01:23:05;12.20;93.30
70076;DHT22;63241;51.056;3.698;2023-04-10T01:31:19;12.00;93.60
70076;DHT22;63241;51.056;3.698;2023-04-10T01:33:46;12.10;93.10
70076;DHT22;63241;51.056;3.698;2023-04-10T01:36:23;12.10;92.80
70076;DHT22;63241;51.056;3.698;2023-04-10T01:38:51;12.00;93.00
70076;DHT22;63241;51.056;3.698;2023-04-10T01:41:21;12.00;93.30
70076;DHT22;63241;51.056;3.698;2023-04-10T01:43:52;11.90;93.00
70076;DHT22;63241;51.056;3.698;2023-04-10T01:46:21;11.80;93.30
70076;DHT22;63241;51.056;3.698;2023-04-10T01:48:49;11.90;93.60
70076;DHT22;63241;51.056;3.698;2023-04-10T01:51:18;11.80;93.30
70076;DHT22;63241;51.056;3.698;2023-04-10T01:53:47;11.70;93.50
70076;DHT22;63241;51.056;3.698;2023-04-10T01:56:15;11.60;93.80
70076;DHT22;63241;51.056;3.698;2023-04-10T01:58:43;11.50;94.30
70076;DHT22;63241;51.056;3.698;2023-04-10T02:01:19;11.50;94.90
70076;DHT22;63241;51.056;3.698;2023-04-10T02:03:47;11.50;94.90
70076;DHT22;63241;51.056;3.698;2023-04-10T02:09:14;11.50;94.50
70076;DHT22;63241;51.056;3.698;2023-04-10T02:11:54;11.50;94.70
70076;DHT22;63241;51.056;3.698;2023-04-10T02:14:25;11.50;94.40
70076;DHT22;63241;51.056;3.698;2023-04-10T02:16:54;11.30;94.90
70076;DHT22;63241;51.056;3.698;2023-04-10T02:19:24;11.30;94.60
70076;DHT22;63241;51.056;3.698;2023-04-10T02:21:53;11.30;95.10
70076;DHT22;63241;51.056;3.698;2023-04-10T02:24:22;11.30;95.20
70076;DHT22;63241;51.056;3.698;2023-04-10T02:26:51;11.30;95.40
70076;DHT22;63241;51.056;3.698;2023-04-10T02:29:19;11.40;95.50
70076;DHT22;63241;51.056;3.698;2023-04-10T02:31:48;11.40;95.00
70076;DHT22;63241;51.056;3.698;2023-04-10T02:34:16;11.30;95.30
70076;DHT22;63241;51.056;3.698;2023-04-10T02:36:44;11.30;95.80
70076;DHT22;63241;51.056;3.698;2023-04-10T02:39:11;11.30;95.20
70076;DHT22;63241;51.056;3.698;2023-04-10T02:41:39;11.20;96.30
70076;DHT22;63241;51.056;3.698;2023-04-10T02:44:07;11.30;95.20
70076;DHT22;63241;51.056;3.698;2023-04-10T02:46:34;11.30;95.20
70076;DHT22;63241;51.056;3.698;2023-04-10T02:49:02;11.50;95.00
70076;DHT22;63241;51.056;3.698;2023-04-10T02:51:33;11.40;94.80
70076;DHT22;63241;51.056;3.698;2023-04-10T02:54:01;11.40;95.00
70076;DHT22;63241;51.056;3.698;2023-04-10T02:56:28;11.30;95.00
70076;DHT22;63241;51.056;3.698;2023-04-10T02:58:56;11.20;94.40
70076;DHT22;63241;51.056;3.698;2023-04-10T03:01:24;11.10;95.40
70076;DHT22;63241;51.056;3.698;2023-04-10T03:03:52;11.10;95.30
70076;DHT22;63241;51.056;3.698;2023-04-10T03:06:19;11.10;95.40
70076;DHT22;63241;51.056;3.698;2023-04-10T03:08:49;11.20;95.20
70076;DHT22;63241;51.056;3.698;2023-04-10T03:11:17;11.20;95.20
70076;DHT22;63241;51.056;3.698;2023-04-10T03:13:44;11.10;95.10
70076;DHT22;63241;51.056;3.698;2023-04-10T03:16:12;11.10;95.40
70076;DHT22;63241;51.056;3.698;2023-04-10T03:18:40;11.10;95.10
70076;DHT22;63241;51.056;3.698;2023-04-10T03:21:08;11.00;95.40
70076;DHT22;63241;51.056;3.698;2023-04-10T03:23:36;11.10;95.50
70076;DHT22;63241;51.056;3.698;2023-04-10T03:26:03;11.20;94.60
70076;DHT22;63241;51.056;3.698;2023-04-10T03:28:31;11.20;94.60
70076;DHT22;63241;51.056;3.698;2023-04-10T03:30:59;11.10;94.90
70076;DHT22;63241;51.056;3.698;2023-04-10T03:33:27;11.00;95.10
70076;DHT22;63241;51.056;3.698;2023-04-10T03:35:54;11.00;95.00
70076;DHT22;63241;51.056;3.698;2023-04-10T03:38:23;11.10;95.10
70076;DHT22;63241;51.056;3.698;2023-04-10T03:40:50;11.00;94.80
70076;DHT22;63241;51.056;3.698;2023-04-10T03:43:19;11.00;94.80
70076;DHT22;63241;51.056;3.698;2023-04-10T03:45:47;11.00;95.10
70076;DHT22;63241;51.056;3.698;2023-04-10T03:48:14;11.00;94.60
70076;DHT22;63241;51.056;3.698;2023-04-10T03:50:43;11.10;94.70
70076;DHT22;63241;51.056;3.698;2023-04-10T03:53:11;11.10;94.30
70076;DHT22;63241;51.056;3.698;2023-04-10T03:55:38;11.10;94.20
70076;DHT22;63241;51.056;3.698;2023-04-10T03:58:06;11.10;93.80
70076;DHT22;63241;51.056;3.698;2023-04-10T04:00:34;11.00;93.80
70076;DHT22;63241;51.056;3.698;2023-04-10T04:03:02;11.10;93.70
70076;DHT22;63241;51.056;3.698;2023-04-10T04:05:32;11.20;93.60
70076;DHT22;63241;51.056;3.698;2023-04-10T04:07:59;11.20;93.10
70076;DHT22;63241;51.056;3.698;2023-04-10T04:10:27;11.20;93.20
70076;DHT22;63241;51.056;3.698;2023-04-10T04:12:55;11.10;93.10
70076;DHT22;63241;51.056;3.698;2023-04-10T04:15:22;11.20;93.20
70076;DHT22;63241;51.056;3.698;2023-04-10T04:17:50;11.10;93.30
70076;DHT22;63241;51.056;3.698;2023-04-10T04:20:18;11.10;93.10
70076;DHT22;63241;51.056;3.698;2023-04-10T04:22:46;11.20;93.00
70076;DHT22;63241;51.056;3.698;2023-04-10T04:25:13;11.20;92.90
70076;DHT22;63241;51.056;3.698;2023-04-10T04:27:41;11.20;92.90
70076;DHT22;63241;51.056;3.698;2023-04-10T04:30:09;11.20;92.70
70076;DHT22;63241;51.056;3.698;2023-04-10T04:32:37;11.20;92.60
70076;DHT22;63241;51.056;3.698;2023-04-10T04:35:05;11.10;92.70
70076;DHT22;63241;51.056;3.698;2023-04-10T04:37:33;11.10;93.10
70076;DHT22;63241;51.056;3.698;2023-04-10T04:40:01;11.00;92.90
70076;DHT22;63241;51.056;3.698;2023-04-10T04:42:29;11.00;93.00
70076;DHT22;63241;51.056;3.698;2023-04-10T04:44:57;11.00;93.20
70076;DHT22;63241;51.056;3.698;2023-04-10T04:47:24;10.90;93.10
70076;DHT22;63241;51.056;3.698;2023-04-10T04:49:52;10.80;93.90
70076;DHT22;63241;51.056;3.698;2023-04-10T04:52:19;10.70;94.00
70076;DHT22;63241;51.056;3.698;2023-04-10T04:54:47;10.80;94.20
70076;DHT22;63241;51.056;3.698;2023-04-10T04:57:15;10.80;94.00
70076;DHT22;63241;51.056;3.698;2023-04-10T04:59:47;10.80;93.90
70076;DHT22;63241;51.056;3.698;2023-04-10T05:02:12;10.80;94.20
70076;DHT22;63241;51.056;3.698;2023-04-10T05:04:39;10.80;93.90
70076;DHT22;63241;51.056;3.698;2023-04-10T05:07:07;10.80;94.00
70076;DHT22;63241;51.056;3.698;2023-04-10T05:09:35;10.90;94.10
70076;DHT22;63241;51.056;3.698;2023-04-10T05:12:03;11.00;93.70
70076;DHT22;63241;51.056;3.698;2023-04-10T05:14:30;11.00;93.80
70076;DHT22;63241;51.056;3.698;2023-04-10T05:16:58;11.00;93.60
70076;DHT22;63241;51.056;3.698;2023-04-10T05:19:25;11.10;93.20
70076;DHT22;63241;51.056;3.698;2023-04-10T05:21:53;11.10;92.80
70076;DHT22;63241;51.056;3.698;2023-04-10T05:24:21;11.10;92.50
70076;DHT22;63241;51.056;3.698;2023-04-10T05:26:48;11.20;92.50
70076;DHT22;63241;51.056;3.698;2023-04-10T05:29:16;11.20;92.30
70076;DHT22;63241;51.056;3.698;2023-04-10T05:31:44;11.30;91.60
70076;DHT22;63241;51.056;3.698;2023-04-10T05:34:11;11.20;91.40
70076;DHT22;63241;51.056;3.698;2023-04-10T05:36:39;11.20;91.60
70076;DHT22;63241;51.056;3.698;2023-04-10T05:39:07;11.20;91.10
70076;DHT22;63241;51.056;3.698;2023-04-10T05:41:34;11.20;90.70
70076;DHT22;63241;51.056;3.698;2023-04-10T05:44:02;11.20;91.30
70076;DHT22;63241;51.056;3.698;2023-04-10T05:46:29;11.20;90.90
70076;DHT22;63241;51.056;3.698;2023-04-10T05:48:57;11.20;90.70
70076;DHT22;63241;51.056;3.698;2023-04-10T05:51:25;11.10;90.80
70076;DHT22;63241;51.056;3.698;2023-04-10T05:53:53;11.20;90.80
70076;DHT22;63241;51.056;3.698;2023-04-10T05:56:20;11.30;91.00
70076;DHT22;63241;51.056;3.698;2023-04-10T05:58:48;11.30;89.60
70076;DHT22;63241;51.056;3.698;2023-04-10T06:01:16;11.40;89.30
70076;DHT22;63241;51.056;3.698;2023-04-10T06:03:43;11.40;89.30
70076;DHT22;63241;51.056;3.698;2023-04-10T06:06:11;11.30;89.40
70076;DHT22;63241;51.056;3.698;2023-04-10T06:08:39;11.30;90.00
70076;DHT22;63241;51.056;3.698;2023-04-10T06:11:06;11.40;89.30
70076;DHT22;63241;51.056;3.698;2023-04-10T06:13:34;11.40;88.40
70076;DHT22;63241;51.056;3.698;2023-04-10T06:16:02;11.50;88.50
70076;DHT22;63241;51.056;3.698;2023-04-10T06:18:29;11.50;87.80
70076;DHT22;63241;51.056;3.698;2023-04-10T06:20:57;11.50;88.10
70076;DHT22;63241;51.056;3.698;2023-04-10T06:23:28;11.70;86.70
70076;DHT22;63241;51.056;3.698;2023-04-10T06:25:56;11.60;86.50
70076;DHT22;63241;51.056;3.698;2023-04-10T06:28:23;11.60;87.20
70076;DHT22;63241;51.056;3.698;2023-04-10T06:30:51;11.60;87.30
70076;DHT22;63241;51.056;3.698;2023-04-10T06:33:19;11.60;87.20
70076;DHT22;63241;51.056;3.698;2023-04-10T06:35:47;11.80;86.50
70076;DHT22;63241;51.056;3.698;2023-04-10T06:38:16;11.90;85.50
70076;DHT22;63241;51.056;3.698;2023-04-10T06:40:44;11.90;85.40
70076;DHT22;63241;51.056;3.698;2023-04-10T06:43:11;12.00;85.20
70076;DHT22;63241;51.056;3.698;2023-04-10T06:45:39;12.10;85.50
70076;DHT22;63241;51.056;3.698;2023-04-10T06:48:07;12.30;84.10
70076;DHT22;63241;51.056;3.698;2023-04-10T06:50:34;12.40;83.70
70076;DHT22;63241;51.056;3.698;2023-04-10T06:53:02;12.50;82.50
70076;DHT22;63241;51.056;3.698;2023-04-10T06:55:30;12.50;81.70
70076;DHT22;63241;51.056;3.698;2023-04-10T06:57:57;12.50;81.20
70076;DHT22;63241;51.056;3.698;2023-04-10T07:00:25;12.50;82.10
70076;DHT22;63241;51.056;3.698;2023-04-10T07:02:53;12.60;80.60
70076;DHT22;63241;51.056;3.698;2023-04-10T07:05:20;12.70;81.80
70076;DHT22;63241;51.056;3.698;2023-04-10T07:07:49;12.80;80.30
70076;DHT22;63241;51.056;3.698;2023-04-10T07:10:16;12.90;79.60
70076;DHT22;63241;51.056;3.698;2023-04-10T07:12:44;13.00;79.80
70076;DHT22;63241;51.056;3.698;2023-04-10T07:15:12;13.10;78.10
70076;DHT22;63241;51.056;3.698;2023-04-10T07:17:40;13.10;77.90
70076;DHT22;63241;51.056;3.698;2023-04-10T07:20:08;13.10;78.10
70076;DHT22;63241;51.056;3.698;2023-04-10T07:22:36;13.10;77.60
70076;DHT22;63241;51.056;3.698;2023-04-10T07:25:04;13.20;76.80
70076;DHT22;63241;51.056;3.698;2023-04-10T07:27:32;13.30;77.50
70076;DHT22;63241;51.056;3.698;2023-04-10T07:30:00;13.20;76.10
70076;DHT22;63241;51.056;3.698;2023-04-10T07:32:28;13.30;77.80
70076;DHT22;63241;51.056;3.698;2023-04-10T07:34:55;13.40;76.00
70076;DHT22;63241;51.056;3.698;2023-04-10T07:37:23;13.50;75.50
70076;DHT22;63241;51.056;3.698;2023-04-10T07:39:51;13.70;75.60
70076;DHT22;63241;51.056;3.698;2023-04-10T07:42:18;13.90;73.30
70076;DHT22;63241;51.056;3.698;2023-04-10T07:44:46;14.00;73.10
70076;DHT22;63241;51.056;3.698;2023-04-10T07:47:14;14.10;72.30
70076;DHT22;63241;51.056;3.698;2023-04-10T07:49:41;14.20;71.80
70076;DHT22;63241;51.056;3.698;2023-04-10T07:52:09;14.30;71.70
70076;DHT22;63241;51.056;3.698;2023-04-10T07:54:37;14.40;70.00
70076;DHT22;63241;51.056;3.698;2023-04-10T07:57:05;14.60;70.20
70076;DHT22;63241;51.056;3.698;2023-04-10T07:59:32;14.50;69.60
70076;DHT22;63241;51.056;3.698;2023-04-10T08:02:00;14.60;70.20
70076;DHT22;63241;51.056;3.698;2023-04-10T08:04:28;14.70;69.50
70076;DHT22;63241;51.056;3.698;2023-04-10T08:06:56;14.80;68.40
70076;DHT22;63241;51.056;3.698;2023-04-10T08:09:23;14.60;67.90
70076;DHT22;63241;51.056;3.698;2023-04-10T08:11:51;14.50;69.00
70076;DHT22;63241;51.056;3.698;2023-04-10T08:14:19;14.60;68.80
70076;DHT22;63241;51.056;3.698;2023-04-10T08:16:46;14.70;67.80
70076;DHT22;63241;51.056;3.698;2023-04-10T08:19:14;14.60;69.10
70076;DHT22;63241;51.056;3.698;2023-04-10T08:21:41;14.70;69.30
70076;DHT22;63241;51.056;3.698;2023-04-10T08:24:09;14.80;68.50
70076;DHT22;63241;51.056;3.698;2023-04-10T08:26:37;14.90;68.20
70076;DHT22;63241;51.056;3.698;2023-04-10T08:29:05;15.00;67.30
70076;DHT22;63241;51.056;3.698;2023-04-10T08:31:32;14.80;67.60
70076;DHT22;63241;51.056;3.698;2023-04-10T08:34:00;14.80;67.90
70076;DHT22;63241;51.056;3.698;2023-04-10T08:36:29;14.90;69.00
70076;DHT22;63241;51.056;3.698;2023-04-10T08:38:57;15.20;67.80
70076;DHT22;63241;51.056;3.698;2023-04-10T08:41:25;15.40;67.50
70076;DHT22;63241;51.056;3.698;2023-04-10T08:43:52;15.80;67.10
70076;DHT22;63241;51.056;3.698;2023-04-10T08:46:26;15.90;64.60
70076;DHT22;63241;51.056;3.698;2023-04-10T08:49:01;15.90;64.20
70076;DHT22;63241;51.056;3.698;2023-04-10T08:51:41;16.10;64.80
70076;DHT22;63241;51.056;3.698;2023-04-10T08:54:13;16.00;62.90
70076;DHT22;63241;51.056;3.698;2023-04-10T08:56:41;15.90;64.30
70076;DHT22;63241;51.056;3.698;2023-04-10T08:59:09;15.90;64.20
70076;DHT22;63241;51.056;3.698;2023-04-10T09:01:38;16.10;63.80
70076;DHT22;63241;51.056;3.698;2023-04-10T09:04:06;16.10;63.30
70076;DHT22;63241;51.056;3.698;2023-04-10T09:06:34;16.00;63.20
70076;DHT22;63241;51.056;3.698;2023-04-10T09:09:01;16.20;62.70
70076;DHT22;63241;51.056;3.698;2023-04-10T09:14:26;16.40;63.20
70076;DHT22;63241;51.056;3.698;2023-04-10T09:19:44;16.50;63.20
70076;DHT22;63241;51.056;3.698;2023-04-10T09:22:12;16.50;62.10
70076;DHT22;63241;51.056;3.698;2023-04-10T09:24:42;16.30;62.70
70076;DHT22;63241;51.056;3.698;2023-04-10T09:27:10;16.40;63.50
70076;DHT22;63241;51.056;3.698;2023-04-10T09:29:45;16.60;62.60
70076;DHT22;63241;51.056;3.698;2023-04-10T09:32:38;17.00;62.10
70076;DHT22;63241;51.056;3.698;2023-04-10T09:35:07;18.20;59.60
70076;DHT22;63241;51.056;3.698;2023-04-10T09:37:36;19.70;56.70
70076;DHT22;63241;51.056;3.698;2023-04-10T09:40:05;20.70;52.50
70076;DHT22;63241;51.056;3.698;2023-04-10T09:42:34;21.10;50.70
70076;DHT22;63241;51.056;3.698;2023-04-10T09:45:05;21.00;49.30
70076;DHT22;63241;51.056;3.698;2023-04-10T09:47:33;20.90;48.80
70076;DHT22;63241;51.056;3.698;2023-04-10T09:50:01;20.70;49.70
70076;DHT22;63241;51.056;3.698;2023-04-10T09:52:32;20.60;49.70
70076;DHT22;63241;51.056;3.698;2023-04-10T09:55:01;21.00;50.00
70076;DHT22;63241;51.056;3.698;2023-04-10T09:57:35;21.10;48.60
70076;DHT22;63241;51.056;3.698;2023-04-10T10:00:04;20.60;49.10
70076;DHT22;63241;51.056;3.698;2023-04-10T10:02:36;20.90;50.00
70076;DHT22;63241;51.056;3.698;2023-04-10T10:05:06;21.50;48.80
70076;DHT22;63241;51.056;3.698;2023-04-10T10:07:34;21.90;47.90
70076;DHT22;63241;51.056;3.698;2023-04-10T10:10:02;22.50;47.00
70076;DHT22;63241;51.056;3.698;2023-04-10T10:12:49;22.70;45.70
70076;DHT22;63241;51.056;3.698;2023-04-10T10:18:53;21.70;45.80
70076;DHT22;63241;51.056;3.698;2023-04-10T10:20:43;20.90;48.00
70076;DHT22;63241;51.056;3.698;2023-04-10T10:23:12;20.50;50.10
70076;DHT22;63241;51.056;3.698;2023-04-10T10:25:43;20.40;50.10
70076;DHT22;63241;51.056;3.698;2023-04-10T10:28:13;20.30;49.80
70076;DHT22;63241;51.056;3.698;2023-04-10T10:30:42;20.30;50.10
70076;DHT22;63241;51.056;3.698;2023-04-10T10:33:11;20.40;50.20
70076;DHT22;63241;51.056;3.698;2023-04-10T10:35:41;20.40;50.30
70076;DHT22;63241;51.056;3.698;2023-04-10T10:38:09;19.90;50.70
70076;DHT22;63241;51.056;3.698;2023-04-10T10:45:59;18.80;53.90
70076;DHT22;63241;51.056;3.698;2023-04-10T10:48:27;18.50;54.70
70076;DHT22;63241;51.056;3.698;2023-04-10T10:50:56;18.30;55.30
70076;DHT22;63241;51.056;3.698;2023-04-10T10:53:38;18.30;56.00
70076;DHT22;63241;51.056;3.698;2023-04-10T10:58:54;18.30;56.40
70076;DHT22;63241;51.056;3.698;2023-04-10T11:01:24;18.40;55.50
70076;DHT22;63241;51.056;3.698;2023-04-10T11:03:52;18.60;55.80
70076;DHT22;63241;51.056;3.698;2023-04-10T11:06:21;18.70;55.20
70076;DHT22;63241;51.056;3.698;2023-04-10T11:24:58;17.20;99.90
70076;DHT22;63241;51.056;3.698;2023-04-10T11:27:37;16.80;99.90
70076;DHT22;63241;51.056;3.698;2023-04-10T11:30:28;16.60;99.90
70076;DHT22;63241;51.056;3.698;2023-04-10T11:32:56;16.30;99.90
70076;DHT22;63241;51.056;3.698;2023-04-10T11:35:26;16.30;99.90
70076;DHT22;63241;51.056;3.698;2023-04-10T11:38:13;16.20;99.90
70076;DHT22;63241;51.056;3.698;2023-04-10T11:40:54;16.10;99.90
70076;DHT22;63241;51.056;3.698;2023-04-10T11:43:22;15.80;99.90
70076;DHT22;63241;51.056;3.698;2023-04-10T11:46:03;15.50;99.90
70076;DHT22;63241;51.056;3.698;2023-04-10T11:48:27;15.30;99.90
70076;DHT22;63241;51.056;3.698;2023-04-10T11:50:56;15.40;99.90
70076;DHT22;63241;51.056;3.698;2023-04-10T11:53:25;15.20;99.90
70076;DHT22;63241;51.056;3.698;2023-04-10T11:55:54;15.10;99.90
70076;DHT22;63241;51.056;3.698;2023-04-10T11:58:23;15.00;99.90
70076;DHT22;63241;51.056;3.698;2023-04-10T12:00:58;15.10;99.90
70076;DHT22;63241;51.056;3.698;2023-04-10T12:03:40;15.10;99.90
70076;DHT22;63241;51.056;3.698;2023-04-10T12:06:11;15.10;99.90
70076;DHT22;63241;51.056;3.698;2023-04-10T12:08:46;15.20;99.90
70076;DHT22;63241;51.056;3.698;2023-04-10T12:11:11;15.20;99.90
70076;DHT22;63241;51.056;3.698;2023-04-10T12:13:40;15.10;99.90
70076;DHT22;63241;51.056;3.698;2023-04-10T12:16:09;14.80;99.90
70076;DHT22;63241;51.056;3.698;2023-04-10T12:18:37;14.70;99.90
70076;DHT22;63241;51.056;3.698;2023-04-10T12:21:07;14.50;99.90
70076;DHT22;63241;51.056;3.698;2023-04-10T12:23:37;14.50;99.90
70076;DHT22;63241;51.056;3.698;2023-04-10T12:28:36;14.70;99.90
70076;DHT22;63241;51.056;3.698;2023-04-10T12:31:04;14.70;99.90
70076;DHT22;63241;51.056;3.698;2023-04-10T12:33:32;14.80;99.90
70076;DHT22;63241;51.056;3.698;2023-04-10T12:36:00;15.00;99.90
70076;DHT22;63241;51.056;3.698;2023-04-10T12:38:43;14.90;99.90
70076;DHT22;63241;51.056;3.698;2023-04-10T12:41:11;14.90;99.90
70076;DHT22;63241;51.056;3.698;2023-04-10T12:43:40;15.00;99.90
70076;DHT22;63241;51.056;3.698;2023-04-10T12:46:21;14.90;99.90
70076;DHT22;63241;51.056;3.698;2023-04-10T12:48:41;15.10;99.90
70076;DHT22;63241;51.056;3.698;2023-04-10T12:51:08;15.10;99.90
70076;DHT22;63241;51.056;3.698;2023-04-10T12:53:44;15.00;99.90
70076;DHT22;63241;51.056;3.698;2023-04-10T12:56:12;15.10;99.90
70076;DHT22;63241;51.056;3.698;2023-04-10T12:58:40;15.30;99.90
70076;DHT22;63241;51.056;3.698;2023-04-10T13:01:09;15.30;99.90
70076;DHT22;63241;51.056;3.698;2023-04-10T13:03:37;14.90;99.90
70076;DHT22;63241;51.056;3.698;2023-04-10T13:06:05;14.80;99.90
70076;DHT22;63241;51.056;3.698;2023-04-10T13:08:36;14.80;99.90
70076;DHT22;63241;51.056;3.698;2023-04-10T13:11:04;15.00;99.90
70076;DHT22;63241;51.056;3.698;2023-04-10T13:13:32;15.10;99.90
70076;DHT22;63241;51.056;3.698;2023-04-10T13:16:01;15.30;99.90
70076;DHT22;63241;51.056;3.698;2023-04-10T13:18:28;15.40;99.90
70076;DHT22;63241;51.056;3.698;2023-04-10T13:20:56;15.70;99.90
70076;DHT22;63241;51.056;3.698;2023-04-10T13:23:24;15.90;99.90
70076;DHT22;63241;51.056;3.698;2023-04-10T13:25:51;16.10;99.90
70076;DHT22;63241;51.056;3.698;2023-04-10T13:28:19;16.20;99.90
70076;DHT22;63241;51.056;3.698;2023-04-10T13:30:47;16.30;99.90
70076;DHT22;63241;51.056;3.698;2023-04-10T13:33:15;16.20;99.90
70076;DHT22;63241;51.056;3.698;2023-04-10T13:35:42;16.20;99.90
70076;DHT22;63241;51.056;3.698;2023-04-10T13:38:10;16.10;99.90
70076;DHT22;63241;51.056;3.698;2023-04-10T13:40:37;16.00;99.90
70076;DHT22;63241;51.056;3.698;2023-04-10T13:43:05;16.10;99.90
70076;DHT22;63241;51.056;3.698;2023-04-10T13:45:33;16.20;99.90
70076;DHT22;63241;51.056;3.698;2023-04-10T13:48:01;16.20;99.90
70076;DHT22;63241;51.056;3.698;2023-04-10T13:50:29;16.20;99.90
70076;DHT22;63241;51.056;3.698;2023-04-10T13:52:56;16.40;99.90
70076;DHT22;63241;51.056;3.698;2023-04-10T13:55:24;16.50;99.90
70076;DHT22;63241;51.056;3.698;2023-04-10T13:57:52;16.60;99.90
70076;DHT22;63241;51.056;3.698;2023-04-10T14:00:19;16.70;99.90
70076;DHT22;63241;51.056;3.698;2023-04-10T14:02:47;16.40;99.90
70076;DHT22;63241;51.056;3.698;2023-04-10T14:05:15;16.00;99.90
70076;DHT22;63241;51.056;3.698;2023-04-10T14:07:43;15.60;99.90
70076;DHT22;63241;51.056;3.698;2023-04-10T14:10:10;15.30;99.90
70076;DHT22;63241;51.056;3.698;2023-04-10T14:12:38;15.10;99.90
70076;DHT22;63241;51.056;3.698;2023-04-10T14:15:06;14.90;99.90
70076;DHT22;63241;51.056;3.698;2023-04-10T14:17:34;14.80;99.90
70076;DHT22;63241;51.056;3.698;2023-04-10T14:20:02;14.70;99.90
70076;DHT22;63241;51.056;3.698;2023-04-10T14:22:30;14.60;99.90
70076;DHT22;63241;51.056;3.698;2023-04-10T14:24:57;14.50;99.90
70076;DHT22;63241;51.056;3.698;2023-04-10T14:27:25;14.30;99.90
70076;DHT22;63241;51.056;3.698;2023-04-10T14:29:53;14.20;99.90
70076;DHT22;63241;51.056;3.698;2023-04-10T14:32:21;14.00;99.90
70076;DHT22;63241;51.056;3.698;2023-04-10T14:34:49;13.90;99.90
70076;DHT22;63241;51.056;3.698;2023-04-10T14:37:16;13.90;99.90
70076;DHT22;63241;51.056;3.698;2023-04-10T14:39:44;13.80;99.90
70076;DHT22;63241;51.056;3.698;2023-04-10T14:42:12;13.80;99.90
70076;DHT22;63241;51.056;3.698;2023-04-10T14:44:40;13.80;99.90
70076;DHT22;63241;51.056;3.698;2023-04-10T14:47:07;13.70;99.90
70076;DHT22;63241;51.056;3.698;2023-04-10T14:49:36;13.60;99.90
70076;DHT22;63241;51.056;3.698;2023-04-10T14:52:03;13.40;99.90
70076;DHT22;63241;51.056;3.698;2023-04-10T14:54:31;13.40;99.90
70076;DHT22;63241;51.056;3.698;2023-04-10T14:56:59;13.50;99.90
70076;DHT22;63241;51.056;3.698;2023-04-10T14:59:27;13.40;99.90
70076;DHT22;63241;51.056;3.698;2023-04-10T15:01:55;13.30;99.90
70076;DHT22;63241;51.056;3.698;2023-04-10T15:04:22;13.30;99.90
70076;DHT22;63241;51.056;3.698;2023-04-10T15:06:50;13.30;99.90
70076;DHT22;63241;51.056;3.698;2023-04-10T15:09:18;13.30;99.90
70076;DHT22;63241;51.056;3.698;2023-04-10T15:11:46;13.20;99.90
70076;DHT22;63241;51.056;3.698;2023-04-10T15:14:13;13.20;99.90
70076;DHT22;63241;51.056;3.698;2023-04-10T15:16:41;13.10;99.90
70076;DHT22;63241;51.056;3.698;2023-04-10T15:19:09;13.00;99.90
70076;DHT22;63241;51.056;3.698;2023-04-10T15:21:36;13.00;99.90
70076;DHT22;63241;51.056;3.698;2023-04-10T15:24:04;13.10;99.90
70076;DHT22;63241;51.056;3.698;2023-04-10T15:26:32;13.10;99.90
70076;DHT22;63241;51.056;3.698;2023-04-10T15:28:59;13.10;99.90
70076;DHT22;63241;51.056;3.698;2023-04-10T15:31:27;13.00;99.90
70076;DHT22;63241;51.056;3.698;2023-04-10T15:33:55;13.00;99.90
70076;DHT22;63241;51.056;3.698;2023-04-10T15:36:22;13.00;99.90
70076;DHT22;63241;51.056;3.698;2023-04-10T15:38:50;13.00;99.90
70076;DHT22;63241;51.056;3.698;2023-04-10T15:41:18;12.90;99.90
70076;DHT22;63241;51.056;3.698;2023-04-10T15:43:46;12.90;99.90
70076;DHT22;63241;51.056;3.698;2023-04-10T15:46:15;13.00;99.90
70076;DHT22;63241;51.056;3.698;2023-04-10T15:48:44;13.00;99.90
70076;DHT22;63241;51.056;3.698;2023-04-10T15:51:12;13.00;99.90
70076;DHT22;63241;51.056;3.698;2023-04-10T15:53:39;13.00;99.90
70076;DHT22;63241;51.056;3.698;2023-04-10T15:56:07;13.00;99.90
70076;DHT22;63241;51.056;3.698;2023-04-10T15:58:35;13.10;99.90
70076;DHT22;63241;51.056;3.698;2023-04-10T16:01:03;13.00;99.90
70076;DHT22;63241;51.056;3.698;2023-04-10T16:03:31;13.00;99.90
70076;DHT22;63241;51.056;3.698;2023-04-10T16:05:59;13.00;99.90
70076;DHT22;63241;51.056;3.698;2023-04-10T16:08:27;13.00;99.90
70076;DHT22;63241;51.056;3.698;2023-04-10T16:10:55;13.00;99.90
70076;DHT22;63241;51.056;3.698;2023-04-10T16:13:24;13.00;99.90
70076;DHT22;63241;51.056;3.698;2023-04-10T16:15:52;13.00;99.90
70076;DHT22;63241;51.056;3.698;2023-04-10T16:18:19;13.10;99.90
70076;DHT22;63241;51.056;3.698;2023-04-10T16:20:47;13.10;99.90
70076;DHT22;63241;51.056;3.698;2023-04-10T16:23:15;13.10;99.90